sensor_id;sensor_type;location;lat;lon;timestamp;P1;durP1;ratioP1;P2;durP2;ratioP2
60076;SDS011;45950;45.208;20.374;2022-10-17T00:01:48;19.52;;;11.38;;
60076;SDS011;45950;45.208;20.374;2022-10-17T00:04:15;14.77;;;11.02;;
60076;SDS011;45950;45.208;20.374;2022-10-17T00:06:41;14.23;;;10.50;;
60076;SDS011;45950;45.208;20.374;2022-10-17T00:09:14;14.27;;;10.32;;
60076;SDS011;45950;45.208;20.374;2022-10-17T00:11:41;15.35;;;10.18;;
60076;SDS011;45950;45.208;20.374;2022-10-17T00:14:09;15.73;;;10.43;;
60076;SDS011;45950;45.208;20.374;2022-10-17T00:16:51;13.88;;;10.77;;
60076;SDS011;45950;45.208;20.374;2022-10-17T00:19:18;15.43;;;11.48;;
60076;SDS011;45950;45.208;20.374;2022-10-17T00:21:45;16.45;;;11.82;;
60076;SDS011;45950;45.208;20.374;2022-10-17T00:24:11;14.82;;;10.95;;
60076;SDS011;45950;45.208;20.374;2022-10-17T00:26:38;16.65;;;11.50;;
60076;SDS011;45950;45.208;20.374;2022-10-17T00:29:04;17.85;;;11.98;;
60076;SDS011;45950;45.208;20.374;2022-10-17T00:31:32;14.13;;;10.57;;
60076;SDS011;45950;45.208;20.374;2022-10-17T00:33:59;15.27;;;10.57;;
60076;SDS011;45950;45.208;20.374;2022-10-17T00:36:39;15.02;;;10.95;;
60076;SDS011;45950;45.208;20.374;2022-10-17T00:39:06;16.77;;;11.40;;
60076;SDS011;45950;45.208;20.374;2022-10-17T00:41:32;16.10;;;11.07;;
60076;SDS011;45950;45.208;20.374;2022-10-17T00:44:01;19.65;;;11.13;;
60076;SDS011;45950;45.208;20.374;2022-10-17T00:46:28;14.82;;;10.85;;
60076;SDS011;45950;45.208;20.374;2022-10-17T00:48:57;14.10;;;10.85;;
60076;SDS011;45950;45.208;20.374;2022-10-17T00:51:28;15.48;;;11.18;;
60076;SDS011;45950;45.208;20.374;2022-10-17T00:53:57;16.40;;;10.20;;
60076;SDS011;45950;45.208;20.374;2022-10-17T00:56:23;15.90;;;10.73;;
60076;SDS011;45950;45.208;20.374;2022-10-17T00:58:50;15.43;;;10.82;;
60076;SDS011;45950;45.208;20.374;2022-10-17T01:01:16;12.93;;;10.07;;
60076;SDS011;45950;45.208;20.374;2022-10-17T01:03:43;13.75;;;9.88;;
60076;SDS011;45950;45.208;20.374;2022-10-17T01:06:11;14.57;;;9.68;;
60076;SDS011;45950;45.208;20.374;2022-10-17T01:08:38;13.45;;;9.68;;
60076;SDS011;45950;45.208;20.374;2022-10-17T01:11:07;14.88;;;10.20;;
60076;SDS011;45950;45.208;20.374;2022-10-17T01:13:36;14.73;;;10.63;;
60076;SDS011;45950;45.208;20.374;2022-10-17T01:16:06;13.63;;;9.93;;
60076;SDS011;45950;45.208;20.374;2022-10-17T01:18:39;15.25;;;10.07;;
60076;SDS011;45950;45.208;20.374;2022-10-17T01:21:16;14.25;;;9.50;;
60076;SDS011;45950;45.208;20.374;2022-10-17T01:23:53;14.80;;;9.30;;
60076;SDS011;45950;45.208;20.374;2022-10-17T01:26:27;13.15;;;9.48;;
60076;SDS011;45950;45.208;20.374;2022-10-17T01:29:11;12.18;;;8.32;;
60076;SDS011;45950;45.208;20.374;2022-10-17T01:31:51;11.80;;;9.02;;
60076;SDS011;45950;45.208;20.374;2022-10-17T01:34:20;11.85;;;8.73;;
60076;SDS011;45950;45.208;20.374;2022-10-17T01:36:52;10.88;;;8.70;;
60076;SDS011;45950;45.208;20.374;2022-10-17T01:42:12;10.55;;;8.38;;
60076;SDS011;45950;45.208;20.374;2022-10-17T01:44:41;13.30;;;9.13;;
60076;SDS011;45950;45.208;20.374;2022-10-17T01:47:14;11.13;;;8.68;;
60076;SDS011;45950;45.208;20.374;2022-10-17T01:49:41;12.82;;;9.07;;
60076;SDS011;45950;45.208;20.374;2022-10-17T01:52:09;10.77;;;8.63;;
60076;SDS011;45950;45.208;20.374;2022-10-17T01:54:38;14.43;;;9.25;;
60076;SDS011;45950;45.208;20.374;2022-10-17T01:57:06;14.43;;;9.13;;
60076;SDS011;45950;45.208;20.374;2022-10-17T01:59:37;12.13;;;8.07;;
60076;SDS011;45950;45.208;20.374;2022-10-17T02:02:05;13.95;;;9.93;;
60076;SDS011;45950;45.208;20.374;2022-10-17T02:04:33;15.65;;;9.25;;
60076;SDS011;45950;45.208;20.374;2022-10-17T02:07:04;14.73;;;9.18;;
60076;SDS011;45950;45.208;20.374;2022-10-17T02:09:31;12.27;;;9.07;;
60076;SDS011;45950;45.208;20.374;2022-10-17T02:12:09;13.63;;;9.95;;
60076;SDS011;45950;45.208;20.374;2022-10-17T02:17:26;12.75;;;8.57;;
60076;SDS011;45950;45.208;20.374;2022-10-17T02:19:59;14.55;;;9.85;;
60076;SDS011;45950;45.208;20.374;2022-10-17T02:22:31;13.85;;;9.35;;
60076;SDS011;45950;45.208;20.374;2022-10-17T02:25:02;12.68;;;8.77;;
60076;SDS011;45950;45.208;20.374;2022-10-17T02:27:33;15.48;;;9.65;;
60076;SDS011;45950;45.208;20.374;2022-10-17T02:30:05;12.68;;;9.30;;
60076;SDS011;45950;45.208;20.374;2022-10-17T02:32:33;10.93;;;8.27;;
60076;SDS011;45950;45.208;20.374;2022-10-17T02:35:02;13.57;;;8.73;;
60076;SDS011;45950;45.208;20.374;2022-10-17T02:40:32;14.52;;;8.95;;
60076;SDS011;45950;45.208;20.374;2022-10-17T02:42:59;11.50;;;8.32;;
60076;SDS011;45950;45.208;20.374;2022-10-17T02:45:26;14.95;;;10.90;;
60076;SDS011;45950;45.208;20.374;2022-10-17T02:47:54;15.82;;;10.55;;
60076;SDS011;45950;45.208;20.374;2022-10-17T02:50:25;17.25;;;10.43;;
60076;SDS011;45950;45.208;20.374;2022-10-17T02:52:54;14.10;;;9.95;;
60076;SDS011;45950;45.208;20.374;2022-10-17T02:55:23;12.77;;;8.93;;
60076;SDS011;45950;45.208;20.374;2022-10-17T02:57:52;11.23;;;8.20;;
60076;SDS011;45950;45.208;20.374;2022-10-17T03:00:19;12.27;;;8.00;;
60076;SDS011;45950;45.208;20.374;2022-10-17T03:02:47;11.52;;;7.82;;
60076;SDS011;45950;45.208;20.374;2022-10-17T03:05:15;13.10;;;8.43;;
60076;SDS011;45950;45.208;20.374;2022-10-17T03:07:43;12.85;;;8.20;;
60076;SDS011;45950;45.208;20.374;2022-10-17T03:12:55;13.15;;;7.85;;
60076;SDS011;45950;45.208;20.374;2022-10-17T03:15:22;13.88;;;9.32;;
60076;SDS011;45950;45.208;20.374;2022-10-17T03:17:48;12.32;;;8.32;;
60076;SDS011;45950;45.208;20.374;2022-10-17T03:20:15;12.10;;;7.53;;
60076;SDS011;45950;45.208;20.374;2022-10-17T03:22:43;13.18;;;8.25;;
60076;SDS011;45950;45.208;20.374;2022-10-17T03:25:09;10.70;;;8.30;;
60076;SDS011;45950;45.208;20.374;2022-10-17T03:27:36;10.98;;;8.15;;
60076;SDS011;45950;45.208;20.374;2022-10-17T03:30:03;12.55;;;8.43;;
60076;SDS011;45950;45.208;20.374;2022-10-17T03:32:31;12.07;;;8.40;;
60076;SDS011;45950;45.208;20.374;2022-10-17T03:34:58;9.65;;;7.97;;
60076;SDS011;45950;45.208;20.374;2022-10-17T03:37:24;15.77;;;9.82;;
60076;SDS011;45950;45.208;20.374;2022-10-17T03:39:52;13.05;;;9.02;;
60076;SDS011;45950;45.208;20.374;2022-10-17T03:42:19;13.52;;;8.90;;
60076;SDS011;45950;45.208;20.374;2022-10-17T03:44:45;11.68;;;8.63;;
60076;SDS011;45950;45.208;20.374;2022-10-17T03:47:19;13.48;;;9.77;;
60076;SDS011;45950;45.208;20.374;2022-10-17T03:49:45;16.15;;;10.23;;
60076;SDS011;45950;45.208;20.374;2022-10-17T03:52:12;12.82;;;9.32;;
60076;SDS011;45950;45.208;20.374;2022-10-17T03:57:36;14.88;;;9.07;;
60076;SDS011;45950;45.208;20.374;2022-10-17T04:00:03;13.75;;;9.63;;
60076;SDS011;45950;45.208;20.374;2022-10-17T04:02:29;12.77;;;8.98;;
60076;SDS011;45950;45.208;20.374;2022-10-17T04:04:56;13.95;;;9.50;;
60076;SDS011;45950;45.208;20.374;2022-10-17T04:07:22;14.20;;;9.70;;
60076;SDS011;45950;45.208;20.374;2022-10-17T04:12:45;13.00;;;9.07;;
60076;SDS011;45950;45.208;20.374;2022-10-17T04:15:11;13.65;;;9.48;;
60076;SDS011;45950;45.208;20.374;2022-10-17T04:17:38;16.75;;;10.88;;
60076;SDS011;45950;45.208;20.374;2022-10-17T04:20:05;18.77;;;12.88;;
60076;SDS011;45950;45.208;20.374;2022-10-17T04:22:32;23.02;;;12.90;;
60076;SDS011;45950;45.208;20.374;2022-10-17T04:24:59;22.13;;;16.00;;
60076;SDS011;45950;45.208;20.374;2022-10-17T04:27:25;20.02;;;16.23;;
60076;SDS011;45950;45.208;20.374;2022-10-17T04:29:53;29.45;;;22.08;;
60076;SDS011;45950;45.208;20.374;2022-10-17T04:32:20;32.25;;;24.30;;
60076;SDS011;45950;45.208;20.374;2022-10-17T04:34:47;34.60;;;25.23;;
60076;SDS011;45950;45.208;20.374;2022-10-17T04:37:14;37.53;;;26.65;;
60076;SDS011;45950;45.208;20.374;2022-10-17T04:42:43;48.15;;;35.05;;
60076;SDS011;45950;45.208;20.374;2022-10-17T04:45:11;44.72;;;32.60;;
60076;SDS011;45950;45.208;20.374;2022-10-17T04:47:38;39.85;;;30.00;;
60076;SDS011;45950;45.208;20.374;2022-10-17T04:53:07;43.67;;;30.75;;
60076;SDS011;45950;45.208;20.374;2022-10-17T04:55:36;39.28;;;29.17;;
60076;SDS011;45950;45.208;20.374;2022-10-17T04:58:02;35.72;;;27.13;;
60076;SDS011;45950;45.208;20.374;2022-10-17T05:00:30;38.80;;;28.48;;
60076;SDS011;45950;45.208;20.374;2022-10-17T05:02:57;42.30;;;29.50;;
60076;SDS011;45950;45.208;20.374;2022-10-17T05:05:23;46.90;;;33.15;;
60076;SDS011;45950;45.208;20.374;2022-10-17T05:07:50;44.58;;;31.25;;
60076;SDS011;45950;45.208;20.374;2022-10-17T05:10:21;41.20;;;29.05;;
60076;SDS011;45950;45.208;20.374;2022-10-17T05:12:47;40.85;;;27.55;;
60076;SDS011;45950;45.208;20.374;2022-10-17T05:15:14;36.83;;;27.40;;
60076;SDS011;45950;45.208;20.374;2022-10-17T05:17:42;42.42;;;29.75;;
60076;SDS011;45950;45.208;20.374;2022-10-17T05:20:09;37.92;;;28.10;;
60076;SDS011;45950;45.208;20.374;2022-10-17T05:22:36;49.63;;;36.10;;
60076;SDS011;45950;45.208;20.374;2022-10-17T05:25:02;43.45;;;28.52;;
60076;SDS011;45950;45.208;20.374;2022-10-17T05:27:29;36.90;;;25.48;;
60076;SDS011;45950;45.208;20.374;2022-10-17T05:29:56;33.17;;;25.08;;
60076;SDS011;45950;45.208;20.374;2022-10-17T05:32:22;31.90;;;24.10;;
60076;SDS011;45950;45.208;20.374;2022-10-17T05:34:50;31.48;;;24.05;;
60076;SDS011;45950;45.208;20.374;2022-10-17T05:37:17;30.60;;;22.65;;
60076;SDS011;45950;45.208;20.374;2022-10-17T05:39:44;33.35;;;23.92;;
60076;SDS011;45950;45.208;20.374;2022-10-17T05:42:10;33.60;;;22.77;;
60076;SDS011;45950;45.208;20.374;2022-10-17T05:44:37;27.77;;;20.92;;
60076;SDS011;45950;45.208;20.374;2022-10-17T05:47:05;32.67;;;22.05;;
60076;SDS011;45950;45.208;20.374;2022-10-17T05:49:32;26.77;;;19.20;;
60076;SDS011;45950;45.208;20.374;2022-10-17T05:52:00;29.50;;;22.05;;
60076;SDS011;45950;45.208;20.374;2022-10-17T05:54:26;25.77;;;20.42;;
60076;SDS011;45950;45.208;20.374;2022-10-17T05:56:53;25.13;;;18.52;;
60076;SDS011;45950;45.208;20.374;2022-10-17T05:59:20;28.33;;;18.60;;
60076;SDS011;45950;45.208;20.374;2022-10-17T06:01:47;27.17;;;19.95;;
60076;SDS011;45950;45.208;20.374;2022-10-17T06:04:14;27.52;;;20.40;;
60076;SDS011;45950;45.208;20.374;2022-10-17T06:06:40;29.58;;;20.35;;
60076;SDS011;45950;45.208;20.374;2022-10-17T06:09:09;28.02;;;19.02;;
60076;SDS011;45950;45.208;20.374;2022-10-17T06:11:35;27.77;;;19.63;;
60076;SDS011;45950;45.208;20.374;2022-10-17T06:14:02;25.85;;;19.83;;
60076;SDS011;45950;45.208;20.374;2022-10-17T06:16:29;23.90;;;16.13;;
60076;SDS011;45950;45.208;20.374;2022-10-17T06:18:55;22.38;;;16.45;;
60076;SDS011;45950;45.208;20.374;2022-10-17T06:21:23;21.30;;;15.70;;
60076;SDS011;45950;45.208;20.374;2022-10-17T06:23:51;21.25;;;15.23;;
60076;SDS011;45950;45.208;20.374;2022-10-17T06:26:19;23.05;;;15.85;;
60076;SDS011;45950;45.208;20.374;2022-10-17T06:28:46;22.27;;;14.70;;
60076;SDS011;45950;45.208;20.374;2022-10-17T06:31:13;17.25;;;12.40;;
60076;SDS011;45950;45.208;20.374;2022-10-17T06:33:40;23.10;;;14.70;;
60076;SDS011;45950;45.208;20.374;2022-10-17T06:36:07;20.25;;;14.82;;
60076;SDS011;45950;45.208;20.374;2022-10-17T06:38:35;17.73;;;12.52;;
60076;SDS011;45950;45.208;20.374;2022-10-17T06:41:02;19.17;;;12.75;;
60076;SDS011;45950;45.208;20.374;2022-10-17T06:43:33;16.95;;;11.48;;
60076;SDS011;45950;45.208;20.374;2022-10-17T06:46:00;19.42;;;11.65;;
60076;SDS011;45950;45.208;20.374;2022-10-17T06:48:26;13.60;;;10.30;;
60076;SDS011;45950;45.208;20.374;2022-10-17T06:50:53;15.57;;;10.00;;
60076;SDS011;45950;45.208;20.374;2022-10-17T06:53:23;12.90;;;10.00;;
60076;SDS011;45950;45.208;20.374;2022-10-17T06:55:52;23.58;;;9.98;;
60076;SDS011;45950;45.208;20.374;2022-10-17T06:58:19;13.70;;;9.63;;
60076;SDS011;45950;45.208;20.374;2022-10-17T07:00:47;15.05;;;10.55;;
60076;SDS011;45950;45.208;20.374;2022-10-17T07:03:14;13.88;;;8.80;;
60076;SDS011;45950;45.208;20.374;2022-10-17T07:05:40;12.75;;;9.02;;
60076;SDS011;45950;45.208;20.374;2022-10-17T07:08:07;14.95;;;8.55;;
60076;SDS011;45950;45.208;20.374;2022-10-17T07:10:34;15.38;;;10.07;;
60076;SDS011;45950;45.208;20.374;2022-10-17T07:13:02;13.73;;;8.85;;
60076;SDS011;45950;45.208;20.374;2022-10-17T07:15:29;12.57;;;8.68;;
60076;SDS011;45950;45.208;20.374;2022-10-17T07:17:57;11.18;;;8.82;;
60076;SDS011;45950;45.208;20.374;2022-10-17T07:20:24;11.90;;;8.85;;
60076;SDS011;45950;45.208;20.374;2022-10-17T07:22:51;11.48;;;8.48;;
60076;SDS011;45950;45.208;20.374;2022-10-17T07:25:17;15.35;;;8.32;;
60076;SDS011;45950;45.208;20.374;2022-10-17T07:27:44;14.77;;;8.27;;
60076;SDS011;45950;45.208;20.374;2022-10-17T07:30:10;13.05;;;8.77;;
60076;SDS011;45950;45.208;20.374;2022-10-17T07:32:37;11.10;;;8.40;;
60076;SDS011;45950;45.208;20.374;2022-10-17T07:35:05;15.57;;;8.75;;
60076;SDS011;45950;45.208;20.374;2022-10-17T07:37:32;11.43;;;8.73;;
60076;SDS011;45950;45.208;20.374;2022-10-17T07:39:59;13.07;;;8.85;;
60076;SDS011;45950;45.208;20.374;2022-10-17T07:42:25;12.85;;;8.80;;
60076;SDS011;45950;45.208;20.374;2022-10-17T07:44:52;13.45;;;9.13;;
60076;SDS011;45950;45.208;20.374;2022-10-17T07:47:19;17.55;;;9.10;;
60076;SDS011;45950;45.208;20.374;2022-10-17T07:49:46;10.70;;;8.60;;
60076;SDS011;45950;45.208;20.374;2022-10-17T07:52:14;13.43;;;8.52;;
60076;SDS011;45950;45.208;20.374;2022-10-17T07:54:41;10.85;;;7.45;;
60076;SDS011;45950;45.208;20.374;2022-10-17T07:57:08;11.95;;;7.95;;
60076;SDS011;45950;45.208;20.374;2022-10-17T07:59:35;13.02;;;7.85;;
60076;SDS011;45950;45.208;20.374;2022-10-17T08:02:03;16.67;;;9.00;;
60076;SDS011;45950;45.208;20.374;2022-10-17T08:04:29;11.23;;;7.90;;
60076;SDS011;45950;45.208;20.374;2022-10-17T08:06:56;10.48;;;8.05;;
60076;SDS011;45950;45.208;20.374;2022-10-17T08:09:24;13.70;;;8.95;;
60076;SDS011;45950;45.208;20.374;2022-10-17T08:11:51;11.50;;;7.90;;
60076;SDS011;45950;45.208;20.374;2022-10-17T08:14:18;13.10;;;8.10;;
60076;SDS011;45950;45.208;20.374;2022-10-17T08:16:44;14.20;;;7.22;;
60076;SDS011;45950;45.208;20.374;2022-10-17T08:19:11;13.02;;;8.82;;
60076;SDS011;45950;45.208;20.374;2022-10-17T08:21:37;9.13;;;7.00;;
60076;SDS011;45950;45.208;20.374;2022-10-17T08:24:05;10.75;;;7.15;;
60076;SDS011;45950;45.208;20.374;2022-10-17T08:26:33;9.60;;;6.97;;
60076;SDS011;45950;45.208;20.374;2022-10-17T08:29:00;10.43;;;6.80;;
60076;SDS011;45950;45.208;20.374;2022-10-17T08:31:26;12.10;;;7.22;;
60076;SDS011;45950;45.208;20.374;2022-10-17T08:33:53;10.23;;;7.18;;
60076;SDS011;45950;45.208;20.374;2022-10-17T08:36:20;9.18;;;6.60;;
60076;SDS011;45950;45.208;20.374;2022-10-17T08:38:46;11.00;;;7.40;;
60076;SDS011;45950;45.208;20.374;2022-10-17T08:41:14;10.18;;;7.47;;
60076;SDS011;45950;45.208;20.374;2022-10-17T08:43:52;10.05;;;7.00;;
60076;SDS011;45950;45.208;20.374;2022-10-17T08:46:20;11.00;;;6.78;;
60076;SDS011;45950;45.208;20.374;2022-10-17T08:48:48;9.18;;;6.25;;
60076;SDS011;45950;45.208;20.374;2022-10-17T08:51:16;10.88;;;7.60;;
60076;SDS011;45950;45.208;20.374;2022-10-17T08:53:46;10.50;;;7.63;;
60076;SDS011;45950;45.208;20.374;2022-10-17T08:56:16;9.88;;;7.03;;
60076;SDS011;45950;45.208;20.374;2022-10-17T08:58:44;8.80;;;6.63;;
60076;SDS011;45950;45.208;20.374;2022-10-17T09:01:13;10.95;;;7.35;;
60076;SDS011;45950;45.208;20.374;2022-10-17T09:03:50;11.40;;;7.63;;
60076;SDS011;45950;45.208;20.374;2022-10-17T09:06:20;8.00;;;6.57;;
60076;SDS011;45950;45.208;20.374;2022-10-17T09:08:57;9.48;;;6.82;;
60076;SDS011;45950;45.208;20.374;2022-10-17T09:11:36;10.23;;;6.93;;
60076;SDS011;45950;45.208;20.374;2022-10-17T09:14:09;10.00;;;6.50;;
60076;SDS011;45950;45.208;20.374;2022-10-17T09:16:46;13.18;;;7.45;;
60076;SDS011;45950;45.208;20.374;2022-10-17T09:19:17;10.55;;;6.65;;
60076;SDS011;45950;45.208;20.374;2022-10-17T09:21:46;12.55;;;6.78;;
60076;SDS011;45950;45.208;20.374;2022-10-17T09:24:15;11.65;;;7.13;;
60076;SDS011;45950;45.208;20.374;2022-10-17T09:26:43;11.13;;;8.38;;
60076;SDS011;45950;45.208;20.374;2022-10-17T09:29:13;12.35;;;7.25;;
60076;SDS011;45950;45.208;20.374;2022-10-17T09:31:41;13.77;;;7.68;;
60076;SDS011;45950;45.208;20.374;2022-10-17T09:34:10;11.68;;;6.40;;
60076;SDS011;45950;45.208;20.374;2022-10-17T09:36:37;8.77;;;6.18;;
60076;SDS011;45950;45.208;20.374;2022-10-17T09:39:05;9.00;;;7.20;;
60076;SDS011;45950;45.208;20.374;2022-10-17T09:41:33;10.25;;;6.60;;
60076;SDS011;45950;45.208;20.374;2022-10-17T09:44:07;10.65;;;6.75;;
60076;SDS011;45950;45.208;20.374;2022-10-17T09:46:37;8.98;;;6.25;;
60076;SDS011;45950;45.208;20.374;2022-10-17T09:49:05;11.10;;;6.20;;
60076;SDS011;45950;45.208;20.374;2022-10-17T09:51:35;11.27;;;5.88;;
60076;SDS011;45950;45.208;20.374;2022-10-17T09:54:03;7.90;;;6.25;;
60076;SDS011;45950;45.208;20.374;2022-10-17T09:56:32;9.60;;;6.55;;
60076;SDS011;45950;45.208;20.374;2022-10-17T09:59:28;9.00;;;7.03;;
60076;SDS011;45950;45.208;20.374;2022-10-17T10:01:58;9.05;;;5.75;;
60076;SDS011;45950;45.208;20.374;2022-10-17T10:04:32;11.52;;;5.88;;
60076;SDS011;45950;45.208;20.374;2022-10-17T10:07:03;7.72;;;5.55;;
60076;SDS011;45950;45.208;20.374;2022-10-17T10:09:32;7.80;;;5.35;;
60076;SDS011;45950;45.208;20.374;2022-10-17T10:12:00;11.27;;;5.80;;
60076;SDS011;45950;45.208;20.374;2022-10-17T10:14:29;7.82;;;5.70;;
60076;SDS011;45950;45.208;20.374;2022-10-17T10:16:57;8.23;;;5.38;;
60076;SDS011;45950;45.208;20.374;2022-10-17T10:19:27;9.65;;;6.38;;
60076;SDS011;45950;45.208;20.374;2022-10-17T10:21:54;8.20;;;5.80;;
60076;SDS011;45950;45.208;20.374;2022-10-17T10:24:23;11.05;;;5.68;;
60076;SDS011;45950;45.208;20.374;2022-10-17T10:26:51;8.50;;;5.00;;
60076;SDS011;45950;45.208;20.374;2022-10-17T10:29:20;9.32;;;5.93;;
60076;SDS011;45950;45.208;20.374;2022-10-17T10:31:48;8.00;;;5.22;;
60076;SDS011;45950;45.208;20.374;2022-10-17T10:34:16;9.77;;;5.93;;
60076;SDS011;45950;45.208;20.374;2022-10-17T10:36:44;9.90;;;5.78;;
60076;SDS011;45950;45.208;20.374;2022-10-17T10:39:18;9.90;;;5.22;;
60076;SDS011;45950;45.208;20.374;2022-10-17T10:41:51;9.30;;;6.30;;
60076;SDS011;45950;45.208;20.374;2022-10-17T10:44:17;9.55;;;5.85;;
60076;SDS011;45950;45.208;20.374;2022-10-17T10:46:47;11.75;;;5.50;;
60076;SDS011;45950;45.208;20.374;2022-10-17T10:49:26;9.48;;;5.22;;
60076;SDS011;45950;45.208;20.374;2022-10-17T10:51:54;9.43;;;5.25;;
60076;SDS011;45950;45.208;20.374;2022-10-17T10:54:22;7.20;;;4.47;;
60076;SDS011;45950;45.208;20.374;2022-10-17T10:56:53;8.10;;;4.97;;
60076;SDS011;45950;45.208;20.374;2022-10-17T10:59:23;8.07;;;5.00;;
60076;SDS011;45950;45.208;20.374;2022-10-17T11:01:52;7.43;;;5.18;;
60076;SDS011;45950;45.208;20.374;2022-10-17T11:04:22;7.75;;;4.35;;
60076;SDS011;45950;45.208;20.374;2022-10-17T11:06:51;6.72;;;4.90;;
60076;SDS011;45950;45.208;20.374;2022-10-17T11:09:26;8.07;;;4.38;;
60076;SDS011;45950;45.208;20.374;2022-10-17T11:11:57;8.25;;;4.40;;
60076;SDS011;45950;45.208;20.374;2022-10-17T11:14:32;7.35;;;4.50;;
60076;SDS011;45950;45.208;20.374;2022-10-17T11:17:01;7.70;;;4.50;;
60076;SDS011;45950;45.208;20.374;2022-10-17T11:19:30;8.43;;;4.28;;
60076;SDS011;45950;45.208;20.374;2022-10-17T11:22:02;7.82;;;4.28;;
60076;SDS011;45950;45.208;20.374;2022-10-17T11:24:33;5.20;;;4.13;;
60076;SDS011;45950;45.208;20.374;2022-10-17T11:27:03;9.35;;;5.38;;
60076;SDS011;45950;45.208;20.374;2022-10-17T11:29:31;7.20;;;4.63;;
60076;SDS011;45950;45.208;20.374;2022-10-17T11:32:02;7.80;;;6.15;;
60076;SDS011;45950;45.208;20.374;2022-10-17T11:34:30;7.63;;;4.40;;
60076;SDS011;45950;45.208;20.374;2022-10-17T11:36:58;7.22;;;4.43;;
60076;SDS011;45950;45.208;20.374;2022-10-17T11:39:28;8.20;;;4.30;;
60076;SDS011;45950;45.208;20.374;2022-10-17T11:41:57;8.00;;;4.00;;
60076;SDS011;45950;45.208;20.374;2022-10-17T11:44:28;8.32;;;4.22;;
60076;SDS011;45950;45.208;20.374;2022-10-17T11:46:56;9.15;;;4.85;;
60076;SDS011;45950;45.208;20.374;2022-10-17T11:49:25;6.68;;;3.65;;
60076;SDS011;45950;45.208;20.374;2022-10-17T11:51:54;7.63;;;4.53;;
60076;SDS011;45950;45.208;20.374;2022-10-17T11:54:23;9.15;;;3.95;;
60076;SDS011;45950;45.208;20.374;2022-10-17T11:56:53;9.13;;;4.38;;
60076;SDS011;45950;45.208;20.374;2022-10-17T11:59:39;9.30;;;4.38;;
60076;SDS011;45950;45.208;20.374;2022-10-17T12:02:11;8.30;;;3.90;;
60076;SDS011;45950;45.208;20.374;2022-10-17T12:04:44;8.05;;;4.45;;
60076;SDS011;45950;45.208;20.374;2022-10-17T12:07:14;7.95;;;3.85;;
60076;SDS011;45950;45.208;20.374;2022-10-17T12:09:42;6.47;;;4.45;;
60076;SDS011;45950;45.208;20.374;2022-10-17T12:12:22;5.97;;;3.85;;
60076;SDS011;45950;45.208;20.374;2022-10-17T12:14:50;6.05;;;3.60;;
60076;SDS011;45950;45.208;20.374;2022-10-17T12:17:22;7.75;;;3.90;;
60076;SDS011;45950;45.208;20.374;2022-10-17T12:19:50;7.55;;;4.10;;
60076;SDS011;45950;45.208;20.374;2022-10-17T12:22:18;7.18;;;4.13;;
60076;SDS011;45950;45.208;20.374;2022-10-17T12:24:52;6.90;;;4.35;;
60076;SDS011;45950;45.208;20.374;2022-10-17T12:29:45;6.13;;;4.18;;
60076;SDS011;45950;45.208;20.374;2022-10-17T12:32:14;6.68;;;4.28;;
60076;SDS011;45950;45.208;20.374;2022-10-17T12:34:47;7.47;;;4.30;;
60076;SDS011;45950;45.208;20.374;2022-10-17T12:37:21;10.82;;;4.00;;
60076;SDS011;45950;45.208;20.374;2022-10-17T12:42:50;5.40;;;3.67;;
60076;SDS011;45950;45.208;20.374;2022-10-17T12:48:05;6.97;;;4.40;;
60076;SDS011;45950;45.208;20.374;2022-10-17T12:53:19;6.72;;;4.15;;
60076;SDS011;45950;45.208;20.374;2022-10-17T12:55:49;8.75;;;4.60;;
60076;SDS011;45950;45.208;20.374;2022-10-17T12:58:25;9.30;;;4.80;;
60076;SDS011;45950;45.208;20.374;2022-10-17T13:00:52;9.52;;;5.60;;
60076;SDS011;45950;45.208;20.374;2022-10-17T13:03:20;7.10;;;4.28;;
60076;SDS011;45950;45.208;20.374;2022-10-17T13:05:48;6.93;;;3.60;;
60076;SDS011;45950;45.208;20.374;2022-10-17T13:08:17;6.90;;;4.05;;
60076;SDS011;45950;45.208;20.374;2022-10-17T13:10:45;5.18;;;4.15;;
60076;SDS011;45950;45.208;20.374;2022-10-17T13:13:14;8.23;;;4.60;;
60076;SDS011;45950;45.208;20.374;2022-10-17T13:15:45;6.90;;;4.45;;
60076;SDS011;45950;45.208;20.374;2022-10-17T13:18:16;9.10;;;4.15;;
60076;SDS011;45950;45.208;20.374;2022-10-17T13:20:43;6.35;;;3.83;;
60076;SDS011;45950;45.208;20.374;2022-10-17T13:23:22;7.00;;;3.50;;
60076;SDS011;45950;45.208;20.374;2022-10-17T13:26:00;8.05;;;3.58;;
60076;SDS011;45950;45.208;20.374;2022-10-17T13:28:27;6.43;;;3.70;;
60076;SDS011;45950;45.208;20.374;2022-10-17T13:30:55;8.02;;;4.45;;
60076;SDS011;45950;45.208;20.374;2022-10-17T13:33:30;5.18;;;3.83;;
60076;SDS011;45950;45.208;20.374;2022-10-17T13:35:57;9.15;;;4.75;;
60076;SDS011;45950;45.208;20.374;2022-10-17T13:38:25;7.72;;;4.43;;
60076;SDS011;45950;45.208;20.374;2022-10-17T13:40:52;5.15;;;4.15;;
60076;SDS011;45950;45.208;20.374;2022-10-17T13:43:19;6.93;;;3.83;;
60076;SDS011;45950;45.208;20.374;2022-10-17T13:45:48;6.07;;;3.80;;
60076;SDS011;45950;45.208;20.374;2022-10-17T13:48:18;9.75;;;4.65;;
60076;SDS011;45950;45.208;20.374;2022-10-17T13:50:46;6.57;;;3.97;;
60076;SDS011;45950;45.208;20.374;2022-10-17T13:53:18;7.78;;;4.30;;
60076;SDS011;45950;45.208;20.374;2022-10-17T13:55:58;7.88;;;4.82;;
60076;SDS011;45950;45.208;20.374;2022-10-17T13:58:28;6.82;;;4.40;;
60076;SDS011;45950;45.208;20.374;2022-10-17T14:00:55;8.00;;;4.95;;
60076;SDS011;45950;45.208;20.374;2022-10-17T14:03:23;8.52;;;4.60;;
60076;SDS011;45950;45.208;20.374;2022-10-17T14:06:04;8.52;;;4.45;;
60076;SDS011;45950;45.208;20.374;2022-10-17T14:08:34;5.28;;;3.80;;
60076;SDS011;45950;45.208;20.374;2022-10-17T14:11:01;6.43;;;4.53;;
60076;SDS011;45950;45.208;20.374;2022-10-17T14:13:29;6.43;;;4.20;;
60076;SDS011;45950;45.208;20.374;2022-10-17T14:15:58;6.55;;;3.50;;
60076;SDS011;45950;45.208;20.374;2022-10-17T14:18:27;6.57;;;3.50;;
60076;SDS011;45950;45.208;20.374;2022-10-17T14:20:54;7.78;;;5.47;;
60076;SDS011;45950;45.208;20.374;2022-10-17T14:23:31;7.45;;;6.13;;
60076;SDS011;45950;45.208;20.374;2022-10-17T14:26:09;11.15;;;6.80;;
60076;SDS011;45950;45.208;20.374;2022-10-17T14:28:35;7.10;;;5.80;;
60076;SDS011;45950;45.208;20.374;2022-10-17T14:33:46;7.57;;;5.65;;
60076;SDS011;45950;45.208;20.374;2022-10-17T14:36:13;8.25;;;4.40;;
60076;SDS011;45950;45.208;20.374;2022-10-17T14:38:43;7.40;;;5.55;;
60076;SDS011;45950;45.208;20.374;2022-10-17T14:41:12;9.23;;;6.13;;
60076;SDS011;45950;45.208;20.374;2022-10-17T14:43:39;10.15;;;5.65;;
60076;SDS011;45950;45.208;20.374;2022-10-17T14:46:10;10.55;;;7.30;;
60076;SDS011;45950;45.208;20.374;2022-10-17T14:48:38;11.35;;;7.38;;
60076;SDS011;45950;45.208;20.374;2022-10-17T14:51:09;10.40;;;6.45;;
60076;SDS011;45950;45.208;20.374;2022-10-17T14:53:36;9.43;;;5.35;;
60076;SDS011;45950;45.208;20.374;2022-10-17T14:56:19;7.60;;;5.43;;
60076;SDS011;45950;45.208;20.374;2022-10-17T14:58:46;7.78;;;4.95;;
60076;SDS011;45950;45.208;20.374;2022-10-17T15:04:09;10.48;;;6.07;;
60076;SDS011;45950;45.208;20.374;2022-10-17T15:06:37;7.75;;;5.88;;
60076;SDS011;45950;45.208;20.374;2022-10-17T15:09:04;12.52;;;6.70;;
60076;SDS011;45950;45.208;20.374;2022-10-17T15:11:31;7.18;;;6.10;;
60076;SDS011;45950;45.208;20.374;2022-10-17T15:13:58;9.20;;;6.07;;